sensor_id;sensor_type;location;lat;lon;timestamp;P1;durP1;ratioP1;P2;durP2;ratioP2
20038;SDS011;21737;42.868;25.320;2023-05-10T00:00:32;18.13;;;13.63;;
20038;SDS011;21737;42.868;25.320;2023-05-10T00:03:33;18.07;;;14.30;;
20038;SDS011;21737;42.868;25.320;2023-05-10T00:06:35;20.43;;;14.17;;
20038;SDS011;21737;42.868;25.320;2023-05-10T00:09:37;16.30;;;11.73;;
20038;SDS011;21737;42.868;25.320;2023-05-10T00:12:39;16.53;;;12.17;;
20038;SDS011;21737;42.868;25.320;2023-05-10T00:15:40;13.37;;;10.90;;
20038;SDS011;21737;42.868;25.320;2023-05-10T00:18:42;13.30;;;10.10;;
20038;SDS011;21737;42.868;25.320;2023-05-10T00:21:44;13.03;;;9.60;;
20038;SDS011;21737;42.868;25.320;2023-05-10T00:24:45;19.17;;;10.10;;
20038;SDS011;21737;42.868;25.320;2023-05-10T00:27:47;13.97;;;8.37;;
20038;SDS011;21737;42.868;25.320;2023-05-10T00:30:49;14.33;;;9.47;;
20038;SDS011;21737;42.868;25.320;2023-05-10T00:33:50;12.53;;;9.40;;
20038;SDS011;21737;42.868;25.320;2023-05-10T00:36:52;11.33;;;8.77;;
20038;SDS011;21737;42.868;25.320;2023-05-10T00:39:54;10.73;;;7.97;;
20038;SDS011;21737;42.868;25.320;2023-05-10T00:42:56;12.93;;;8.40;;
20038;SDS011;21737;42.868;25.320;2023-05-10T00:45:57;13.33;;;8.07;;
20038;SDS011;21737;42.868;25.320;2023-05-10T00:48:59;11.37;;;7.67;;
20038;SDS011;21737;42.868;25.320;2023-05-10T00:52:01;13.73;;;8.17;;
20038;SDS011;21737;42.868;25.320;2023-05-10T00:55:04;10.60;;;8.20;;
20038;SDS011;21737;42.868;25.320;2023-05-10T00:58:06;12.07;;;7.93;;
20038;SDS011;21737;42.868;25.320;2023-05-10T01:01:08;10.13;;;7.50;;
20038;SDS011;21737;42.868;25.320;2023-05-10T01:04:11;9.27;;;7.47;;
20038;SDS011;21737;42.868;25.320;2023-05-10T01:07:14;9.70;;;7.50;;
20038;SDS011;21737;42.868;25.320;2023-05-10T01:10:17;10.40;;;8.00;;
20038;SDS011;21737;42.868;25.320;2023-05-10T01:13:32;10.20;;;8.10;;
20038;SDS011;21737;42.868;25.320;2023-05-10T01:16:38;10.00;;;6.97;;
20038;SDS011;21737;42.868;25.320;2023-05-10T01:19:40;11.33;;;7.67;;
20038;SDS011;21737;42.868;25.320;2023-05-10T01:28:58;13.43;;;7.67;;
20038;SDS011;21737;42.868;25.320;2023-05-10T01:32:22;9.30;;;7.00;;
20038;SDS011;21737;42.868;25.320;2023-05-10T01:35:31;8.93;;;7.20;;
20038;SDS011;21737;42.868;25.320;2023-05-10T01:38:42;10.13;;;6.63;;
20038;SDS011;21737;42.868;25.320;2023-05-10T01:45:21;12.07;;;6.97;;
20038;SDS011;21737;42.868;25.320;2023-05-10T01:48:20;8.23;;;6.13;;
20038;SDS011;21737;42.868;25.320;2023-05-10T01:51:26;8.83;;;6.27;;
20038;SDS011;21737;42.868;25.320;2023-05-10T01:54:28;8.57;;;6.57;;
20038;SDS011;21737;42.868;25.320;2023-05-10T01:57:34;9.67;;;6.27;;
20038;SDS011;21737;42.868;25.320;2023-05-10T02:00:36;9.97;;;6.00;;
20038;SDS011;21737;42.868;25.320;2023-05-10T02:03:41;10.57;;;7.23;;
20038;SDS011;21737;42.868;25.320;2023-05-10T02:06:44;9.07;;;5.77;;
20038;SDS011;21737;42.868;25.320;2023-05-10T02:09:47;8.93;;;5.73;;
20038;SDS011;21737;42.868;25.320;2023-05-10T02:12:49;8.67;;;5.63;;
20038;SDS011;21737;42.868;25.320;2023-05-10T02:15:52;7.03;;;5.50;;
20038;SDS011;21737;42.868;25.320;2023-05-10T02:18:54;11.27;;;5.47;;
20038;SDS011;21737;42.868;25.320;2023-05-10T02:21:58;8.77;;;5.23;;
20038;SDS011;21737;42.868;25.320;2023-05-10T02:25:01;8.27;;;5.40;;
20038;SDS011;21737;42.868;25.320;2023-05-10T02:28:04;7.50;;;4.43;;
20038;SDS011;21737;42.868;25.320;2023-05-10T02:31:07;9.27;;;5.20;;
20038;SDS011;21737;42.868;25.320;2023-05-10T02:34:08;8.53;;;5.73;;
20038;SDS011;21737;42.868;25.320;2023-05-10T02:37:13;9.20;;;5.80;;
20038;SDS011;21737;42.868;25.320;2023-05-10T02:40:16;9.43;;;5.90;;
20038;SDS011;21737;42.868;25.320;2023-05-10T02:43:19;7.13;;;5.43;;
20038;SDS011;21737;42.868;25.320;2023-05-10T02:46:24;7.33;;;5.33;;
20038;SDS011;21737;42.868;25.320;2023-05-10T02:49:26;9.40;;;5.63;;
20038;SDS011;21737;42.868;25.320;2023-05-10T02:52:29;7.03;;;5.60;;
20038;SDS011;21737;42.868;25.320;2023-05-10T02:55:32;6.70;;;5.33;;
20038;SDS011;21737;42.868;25.320;2023-05-10T02:58:37;6.83;;;5.17;;
20038;SDS011;21737;42.868;25.320;2023-05-10T03:01:38;8.40;;;5.67;;
20038;SDS011;21737;42.868;25.320;2023-05-10T03:04:40;7.80;;;5.63;;
20038;SDS011;21737;42.868;25.320;2023-05-10T03:07:42;7.80;;;5.70;;
20038;SDS011;21737;42.868;25.320;2023-05-10T03:20:24;10.40;;;5.93;;
20038;SDS011;21737;42.868;25.320;2023-05-10T03:23:27;12.37;;;6.20;;
20038;SDS011;21737;42.868;25.320;2023-05-10T03:26:31;8.87;;;5.80;;
20038;SDS011;21737;42.868;25.320;2023-05-10T03:29:41;9.97;;;6.67;;
20038;SDS011;21737;42.868;25.320;2023-05-10T03:32:43;7.33;;;5.83;;
20038;SDS011;21737;42.868;25.320;2023-05-10T03:35:45;14.43;;;7.00;;
20038;SDS011;21737;42.868;25.320;2023-05-10T03:38:48;13.37;;;7.00;;
20038;SDS011;21737;42.868;25.320;2023-05-10T03:41:50;10.03;;;5.93;;
20038;SDS011;21737;42.868;25.320;2023-05-10T03:44:52;10.40;;;5.80;;
20038;SDS011;21737;42.868;25.320;2023-05-10T03:47:53;7.63;;;5.90;;
20038;SDS011;21737;42.868;25.320;2023-05-10T03:50:56;8.27;;;5.90;;
20038;SDS011;21737;42.868;25.320;2023-05-10T03:53:58;10.03;;;5.97;;
20038;SDS011;21737;42.868;25.320;2023-05-10T03:57:00;10.00;;;6.20;;
20038;SDS011;21737;42.868;25.320;2023-05-10T04:00:03;8.87;;;5.57;;
20038;SDS011;21737;42.868;25.320;2023-05-10T04:03:14;9.53;;;5.50;;
20038;SDS011;21737;42.868;25.320;2023-05-10T04:06:16;7.27;;;5.43;;
20038;SDS011;21737;42.868;25.320;2023-05-10T04:09:19;8.27;;;6.10;;
20038;SDS011;21737;42.868;25.320;2023-05-10T04:12:20;8.13;;;5.83;;
20038;SDS011;21737;42.868;25.320;2023-05-10T04:15:22;13.13;;;5.80;;
20038;SDS011;21737;42.868;25.320;2023-05-10T04:18:24;7.50;;;5.30;;
20038;SDS011;21737;42.868;25.320;2023-05-10T04:21:26;9.20;;;4.90;;
20038;SDS011;21737;42.868;25.320;2023-05-10T04:24:27;12.40;;;6.47;;
20038;SDS011;21737;42.868;25.320;2023-05-10T04:27:38;7.47;;;5.37;;
20038;SDS011;21737;42.868;25.320;2023-05-10T04:30:47;12.57;;;6.33;;
20038;SDS011;21737;42.868;25.320;2023-05-10T04:33:49;13.83;;;5.70;;
20038;SDS011;21737;42.868;25.320;2023-05-10T04:36:51;17.17;;;6.57;;
20038;SDS011;21737;42.868;25.320;2023-05-10T04:39:53;10.00;;;5.50;;
20038;SDS011;21737;42.868;25.320;2023-05-10T04:42:58;15.27;;;6.40;;
20038;SDS011;21737;42.868;25.320;2023-05-10T04:46:01;14.93;;;5.60;;
20038;SDS011;21737;42.868;25.320;2023-05-10T04:49:03;8.57;;;5.77;;
20038;SDS011;21737;42.868;25.320;2023-05-10T04:52:05;7.77;;;5.50;;
20038;SDS011;21737;42.868;25.320;2023-05-10T04:55:07;10.10;;;5.87;;
20038;SDS011;21737;42.868;25.320;2023-05-10T04:58:10;20.63;;;6.43;;
20038;SDS011;21737;42.868;25.320;2023-05-10T05:01:15;9.60;;;5.97;;
20038;SDS011;21737;42.868;25.320;2023-05-10T05:04:19;11.90;;;6.10;;
20038;SDS011;21737;42.868;25.320;2023-05-10T05:07:23;9.23;;;6.07;;
20038;SDS011;21737;42.868;25.320;2023-05-10T05:10:25;17.13;;;5.87;;
20038;SDS011;21737;42.868;25.320;2023-05-10T05:13:26;19.37;;;7.40;;
20038;SDS011;21737;42.868;25.320;2023-05-10T05:16:30;18.13;;;8.07;;
20038;SDS011;21737;42.868;25.320;2023-05-10T05:19:32;14.37;;;6.87;;
20038;SDS011;21737;42.868;25.320;2023-05-10T05:22:33;16.43;;;6.70;;
20038;SDS011;21737;42.868;25.320;2023-05-10T05:25:36;14.20;;;8.17;;
20038;SDS011;21737;42.868;25.320;2023-05-10T05:28:38;14.97;;;7.43;;
20038;SDS011;21737;42.868;25.320;2023-05-10T05:31:40;12.47;;;5.93;;
20038;SDS011;21737;42.868;25.320;2023-05-10T05:34:42;13.00;;;5.53;;
20038;SDS011;21737;42.868;25.320;2023-05-10T05:37:45;21.93;;;6.77;;
20038;SDS011;21737;42.868;25.320;2023-05-10T05:40:46;17.73;;;6.20;;
20038;SDS011;21737;42.868;25.320;2023-05-10T05:43:48;8.50;;;4.93;;
20038;SDS011;21737;42.868;25.320;2023-05-10T05:46:50;12.83;;;5.27;;
20038;SDS011;21737;42.868;25.320;2023-05-10T05:49:52;8.30;;;4.80;;
20038;SDS011;21737;42.868;25.320;2023-05-10T05:52:53;17.23;;;6.17;;
20038;SDS011;21737;42.868;25.320;2023-05-10T05:55:56;10.17;;;5.37;;
20038;SDS011;21737;42.868;25.320;2023-05-10T05:58:58;13.80;;;5.50;;
20038;SDS011;21737;42.868;25.320;2023-05-10T06:02:00;8.73;;;5.43;;
20038;SDS011;21737;42.868;25.320;2023-05-10T06:05:02;10.13;;;5.10;;
20038;SDS011;21737;42.868;25.320;2023-05-10T06:08:04;11.57;;;4.80;;
20038;SDS011;21737;42.868;25.320;2023-05-10T06:11:05;9.03;;;5.23;;
20038;SDS011;21737;42.868;25.320;2023-05-10T06:14:07;8.70;;;5.73;;
20038;SDS011;21737;42.868;25.320;2023-05-10T06:17:09;5.40;;;4.87;;
20038;SDS011;21737;42.868;25.320;2023-05-10T06:20:11;7.10;;;5.07;;
20038;SDS011;21737;42.868;25.320;2023-05-10T06:23:12;6.47;;;5.07;;
20038;SDS011;21737;42.868;25.320;2023-05-10T06:26:14;8.93;;;5.07;;
20038;SDS011;21737;42.868;25.320;2023-05-10T06:29:16;10.00;;;6.00;;
20038;SDS011;21737;42.868;25.320;2023-05-10T06:32:17;9.30;;;5.93;;
20038;SDS011;21737;42.868;25.320;2023-05-10T06:35:19;8.00;;;5.87;;
20038;SDS011;21737;42.868;25.320;2023-05-10T06:38:21;7.57;;;4.80;;
20038;SDS011;21737;42.868;25.320;2023-05-10T06:41:23;8.90;;;5.00;;
20038;SDS011;21737;42.868;25.320;2023-05-10T06:44:25;6.40;;;4.37;;
20038;SDS011;21737;42.868;25.320;2023-05-10T06:47:27;5.53;;;4.43;;
20038;SDS011;21737;42.868;25.320;2023-05-10T06:50:28;4.80;;;4.10;;
20038;SDS011;21737;42.868;25.320;2023-05-10T06:53:30;6.27;;;3.97;;
20038;SDS011;21737;42.868;25.320;2023-05-10T06:56:32;5.50;;;4.20;;
20038;SDS011;21737;42.868;25.320;2023-05-10T06:59:33;4.73;;;3.60;;
20038;SDS011;21737;42.868;25.320;2023-05-10T07:02:35;4.40;;;3.53;;
20038;SDS011;21737;42.868;25.320;2023-05-10T07:05:37;5.73;;;3.87;;
20038;SDS011;21737;42.868;25.320;2023-05-10T07:08:39;5.10;;;3.97;;
20038;SDS011;21737;42.868;25.320;2023-05-10T07:11:41;7.87;;;3.80;;
20038;SDS011;21737;42.868;25.320;2023-05-10T07:14:42;6.23;;;4.37;;
20038;SDS011;21737;42.868;25.320;2023-05-10T07:17:44;5.33;;;3.70;;
20038;SDS011;21737;42.868;25.320;2023-05-10T07:20:46;10.00;;;5.53;;
20038;SDS011;21737;42.868;25.320;2023-05-10T07:23:48;6.20;;;4.20;;
20038;SDS011;21737;42.868;25.320;2023-05-10T07:26:50;7.77;;;4.50;;
20038;SDS011;21737;42.868;25.320;2023-05-10T07:29:52;5.37;;;3.83;;
20038;SDS011;21737;42.868;25.320;2023-05-10T07:32:54;6.90;;;4.00;;
20038;SDS011;21737;42.868;25.320;2023-05-10T07:35:56;7.20;;;3.53;;
20038;SDS011;21737;42.868;25.320;2023-05-10T07:38:58;5.30;;;4.17;;
20038;SDS011;21737;42.868;25.320;2023-05-10T07:41:59;4.33;;;3.50;;
20038;SDS011;21737;42.868;25.320;2023-05-10T07:45:02;5.60;;;3.80;;
20038;SDS011;21737;42.868;25.320;2023-05-10T07:48:04;4.07;;;3.50;;
20038;SDS011;21737;42.868;25.320;2023-05-10T07:51:06;4.50;;;3.77;;
20038;SDS011;21737;42.868;25.320;2023-05-10T07:54:10;6.60;;;3.63;;
20038;SDS011;21737;42.868;25.320;2023-05-10T07:57:12;3.87;;;3.40;;
20038;SDS011;21737;42.868;25.320;2023-05-10T08:00:19;5.40;;;3.50;;
20038;SDS011;21737;42.868;25.320;2023-05-10T08:03:21;5.60;;;3.80;;
20038;SDS011;21737;42.868;25.320;2023-05-10T08:06:23;3.77;;;3.30;;
20038;SDS011;21737;42.868;25.320;2023-05-10T08:09:24;5.73;;;3.10;;
20038;SDS011;21737;42.868;25.320;2023-05-10T08:12:26;3.27;;;2.93;;
20038;SDS011;21737;42.868;25.320;2023-05-10T08:15:28;4.30;;;3.10;;
20038;SDS011;21737;42.868;25.320;2023-05-10T08:18:30;3.10;;;2.80;;
20038;SDS011;21737;42.868;25.320;2023-05-10T08:21:31;5.27;;;2.97;;
20038;SDS011;21737;42.868;25.320;2023-05-10T08:24:33;3.90;;;3.50;;
20038;SDS011;21737;42.868;25.320;2023-05-10T08:27:39;3.07;;;2.77;;
20038;SDS011;21737;42.868;25.320;2023-05-10T08:30:41;4.40;;;3.07;;
20038;SDS011;21737;42.868;25.320;2023-05-10T08:33:43;4.97;;;3.23;;
20038;SDS011;21737;42.868;25.320;2023-05-10T08:36:45;5.03;;;3.20;;
20038;SDS011;21737;42.868;25.320;2023-05-10T08:39:47;3.73;;;3.00;;
20038;SDS011;21737;42.868;25.320;2023-05-10T08:42:58;4.47;;;3.23;;
20038;SDS011;21737;42.868;25.320;2023-05-10T08:46:03;6.00;;;3.53;;
20038;SDS011;21737;42.868;25.320;2023-05-10T08:49:06;3.80;;;3.00;;
20038;SDS011;21737;42.868;25.320;2023-05-10T08:52:09;6.07;;;2.87;;
20038;SDS011;21737;42.868;25.320;2023-05-10T08:55:12;4.17;;;2.63;;
20038;SDS011;21737;42.868;25.320;2023-05-10T08:58:15;5.07;;;3.17;;
20038;SDS011;21737;42.868;25.320;2023-05-10T09:01:16;7.00;;;3.47;;
20038;SDS011;21737;42.868;25.320;2023-05-10T09:04:19;4.77;;;3.13;;
20038;SDS011;21737;42.868;25.320;2023-05-10T09:07:22;5.43;;;2.63;;
20038;SDS011;21737;42.868;25.320;2023-05-10T09:10:24;6.20;;;3.03;;
20038;SDS011;21737;42.868;25.320;2023-05-10T09:13:27;5.00;;;2.70;;
20038;SDS011;21737;42.868;25.320;2023-05-10T09:16:29;6.10;;;2.70;;
20038;SDS011;21737;42.868;25.320;2023-05-10T09:19:31;3.63;;;2.77;;
20038;SDS011;21737;42.868;25.320;2023-05-10T09:22:33;4.30;;;2.60;;
20038;SDS011;21737;42.868;25.320;2023-05-10T09:25:35;4.83;;;2.93;;
20038;SDS011;21737;42.868;25.320;2023-05-10T09:31:54;4.00;;;2.87;;
20038;SDS011;21737;42.868;25.320;2023-05-10T09:34:57;4.87;;;2.53;;
20038;SDS011;21737;42.868;25.320;2023-05-10T09:38:07;5.90;;;3.17;;
20038;SDS011;21737;42.868;25.320;2023-05-10T09:41:15;7.07;;;3.03;;
20038;SDS011;21737;42.868;25.320;2023-05-10T09:44:17;5.70;;;2.93;;
20038;SDS011;21737;42.868;25.320;2023-05-10T09:47:20;4.50;;;3.10;;
20038;SDS011;21737;42.868;25.320;2023-05-10T09:50:22;5.83;;;3.20;;
20038;SDS011;21737;42.868;25.320;2023-05-10T09:53:23;5.60;;;3.10;;
20038;SDS011;21737;42.868;25.320;2023-05-10T09:56:35;5.00;;;3.20;;
20038;SDS011;21737;42.868;25.320;2023-05-10T09:59:38;5.37;;;3.50;;
20038;SDS011;21737;42.868;25.320;2023-05-10T10:02:44;4.90;;;3.30;;
20038;SDS011;21737;42.868;25.320;2023-05-10T10:05:47;4.17;;;3.10;;
20038;SDS011;21737;42.868;25.320;2023-05-10T10:08:50;4.40;;;3.17;;
20038;SDS011;21737;42.868;25.320;2023-05-10T10:11:51;5.63;;;3.13;;
20038;SDS011;21737;42.868;25.320;2023-05-10T10:14:53;4.17;;;2.90;;
20038;SDS011;21737;42.868;25.320;2023-05-10T10:17:56;5.73;;;3.20;;
20038;SDS011;21737;42.868;25.320;2023-05-10T10:20:58;4.90;;;3.00;;
20038;SDS011;21737;42.868;25.320;2023-05-10T10:24:00;4.90;;;3.50;;
20038;SDS011;21737;42.868;25.320;2023-05-10T10:27:16;6.63;;;3.00;;
20038;SDS011;21737;42.868;25.320;2023-05-10T10:36:45;2.80;;;2.50;;
20038;SDS011;21737;42.868;25.320;2023-05-10T10:39:48;5.43;;;2.83;;
20038;SDS011;21737;42.868;25.320;2023-05-10T10:42:49;5.00;;;3.33;;
20038;SDS011;21737;42.868;25.320;2023-05-10T10:49:11;3.30;;;3.00;;
20038;SDS011;21737;42.868;25.320;2023-05-10T10:52:14;2.73;;;2.50;;
20038;SDS011;21737;42.868;25.320;2023-05-10T10:55:19;3.03;;;2.67;;
20038;SDS011;21737;42.868;25.320;2023-05-10T10:58:30;4.47;;;3.40;;
20038;SDS011;21737;42.868;25.320;2023-05-10T11:01:34;3.13;;;2.60;;
20038;SDS011;21737;42.868;25.320;2023-05-10T11:04:43;5.80;;;2.57;;
20038;SDS011;21737;42.868;25.320;2023-05-10T11:07:57;4.37;;;2.77;;
20038;SDS011;21737;42.868;25.320;2023-05-10T11:14:05;4.00;;;2.50;;
20038;SDS011;21737;42.868;25.320;2023-05-10T11:17:27;3.77;;;2.67;;
20038;SDS011;21737;42.868;25.320;2023-05-10T11:20:38;4.37;;;2.50;;
20038;SDS011;21737;42.868;25.320;2023-05-10T11:26:45;3.53;;;2.67;;
20038;SDS011;21737;42.868;25.320;2023-05-10T11:29:48;3.43;;;2.67;;
20038;SDS011;21737;42.868;25.320;2023-05-10T11:32:52;2.57;;;2.37;;
20038;SDS011;21737;42.868;25.320;2023-05-10T11:35:54;6.23;;;2.90;;
20038;SDS011;21737;42.868;25.320;2023-05-10T11:38:56;3.53;;;2.50;;
20038;SDS011;21737;42.868;25.320;2023-05-10T11:41:58;4.73;;;2.87;;
20038;SDS011;21737;42.868;25.320;2023-05-10T11:45:00;3.17;;;2.60;;
20038;SDS011;21737;42.868;25.320;2023-05-10T11:48:02;5.80;;;2.90;;
20038;SDS011;21737;42.868;25.320;2023-05-10T11:51:04;6.33;;;2.80;;
20038;SDS011;21737;42.868;25.320;2023-05-10T11:54:06;7.00;;;2.77;;
20038;SDS011;21737;42.868;25.320;2023-05-10T11:57:10;3.80;;;2.60;;
20038;SDS011;21737;42.868;25.320;2023-05-10T12:00:12;4.00;;;2.77;;
20038;SDS011;21737;42.868;25.320;2023-05-10T12:03:15;4.00;;;2.80;;
20038;SDS011;21737;42.868;25.320;2023-05-10T12:06:20;5.77;;;2.87;;
20038;SDS011;21737;42.868;25.320;2023-05-10T12:09:22;5.00;;;2.80;;
20038;SDS011;21737;42.868;25.320;2023-05-10T12:12:35;5.20;;;3.23;;
20038;SDS011;21737;42.868;25.320;2023-05-10T12:15:36;6.50;;;2.73;;
20038;SDS011;21737;42.868;25.320;2023-05-10T12:18:38;4.80;;;2.47;;
20038;SDS011;21737;42.868;25.320;2023-05-10T12:21:41;4.33;;;2.67;;
20038;SDS011;21737;42.868;25.320;2023-05-10T12:24:43;3.90;;;2.60;;
20038;SDS011;21737;42.868;25.320;2023-05-10T12:27:54;4.07;;;2.70;;
20038;SDS011;21737;42.868;25.320;2023-05-10T12:30:57;6.43;;;2.60;;
20038;SDS011;21737;42.868;25.320;2023-05-10T12:33:59;3.80;;;2.70;;
20038;SDS011;21737;42.868;25.320;2023-05-10T12:37:01;3.20;;;2.50;;
20038;SDS011;21737;42.868;25.320;2023-05-10T12:40:03;5.10;;;2.63;;
20038;SDS011;21737;42.868;25.320;2023-05-10T12:43:06;7.60;;;3.30;;
20038;SDS011;21737;42.868;25.320;2023-05-10T12:46:09;5.53;;;2.70;;
20038;SDS011;21737;42.868;25.320;2023-05-10T12:49:11;3.43;;;2.40;;
20038;SDS011;21737;42.868;25.320;2023-05-10T12:52:12;5.30;;;2.57;;
20038;SDS011;21737;42.868;25.320;2023-05-10T12:55:14;3.30;;;2.70;;
20038;SDS011;21737;42.868;25.320;2023-05-10T12:58:16;4.13;;;2.93;;
20038;SDS011;21737;42.868;25.320;2023-05-10T13:01:35;4.13;;;2.80;;
20038;SDS011;21737;42.868;25.320;2023-05-10T13:04:36;4.77;;;3.50;;
20038;SDS011;21737;42.868;25.320;2023-05-10T13:07:41;4.40;;;3.33;;
20038;SDS011;21737;42.868;25.320;2023-05-10T13:10:45;4.13;;;3.20;;
20038;SDS011;21737;42.868;25.320;2023-05-10T13:13:46;3.97;;;3.07;;
20038;SDS011;21737;42.868;25.320;2023-05-10T13:16:48;5.00;;;3.00;;
20038;SDS011;21737;42.868;25.320;2023-05-10T13:19:50;6.40;;;2.67;;
20038;SDS011;21737;42.868;25.320;2023-05-10T13:22:51;3.57;;;2.70;;
20038;SDS011;21737;42.868;25.320;2023-05-10T13:25:53;4.73;;;2.53;;
20038;SDS011;21737;42.868;25.320;2023-05-10T13:28:55;5.23;;;2.50;;
20038;SDS011;21737;42.868;25.320;2023-05-10T13:31:57;6.23;;;2.37;;
20038;SDS011;21737;42.868;25.320;2023-05-10T13:34:58;5.03;;;2.80;;
20038;SDS011;21737;42.868;25.320;2023-05-10T13:38:00;3.83;;;2.30;;
20038;SDS011;21737;42.868;25.320;2023-05-10T13:41:02;5.50;;;2.70;;
20038;SDS011;21737;42.868;25.320;2023-05-10T13:44:03;5.50;;;2.50;;
20038;SDS011;21737;42.868;25.320;2023-05-10T13:47:06;3.10;;;2.70;;
20038;SDS011;21737;42.868;25.320;2023-05-10T13:50:08;4.33;;;2.60;;
20038;SDS011;21737;42.868;25.320;2023-05-10T13:53:10;4.93;;;2.80;;
20038;SDS011;21737;42.868;25.320;2023-05-10T13:59:42;5.33;;;2.43;;
20038;SDS011;21737;42.868;25.320;2023-05-10T14:02:43;2.97;;;2.67;;
20038;SDS011;21737;42.868;25.320;2023-05-10T14:05:45;7.67;;;4.17;;
20038;SDS011;21737;42.868;25.320;2023-05-10T14:08:47;4.87;;;2.40;;
20038;SDS011;21737;42.868;25.320;2023-05-10T14:11:49;3.03;;;2.57;;
20038;SDS011;21737;42.868;25.320;2023-05-10T14:14:50;3.90;;;2.27;;
20038;SDS011;21737;42.868;25.320;2023-05-10T14:17:52;2.97;;;2.50;;
20038;SDS011;21737;42.868;25.320;2023-05-10T14:20:54;4.43;;;2.70;;
20038;SDS011;21737;42.868;25.320;2023-05-10T14:23:56;3.33;;;2.53;;
20038;SDS011;21737;42.868;25.320;2023-05-10T14:26:58;2.43;;;2.23;;
20038;SDS011;21737;42.868;25.320;2023-05-10T14:30:00;5.23;;;2.60;;
20038;SDS011;21737;42.868;25.320;2023-05-10T14:33:02;4.63;;;2.60;;
20038;SDS011;21737;42.868;25.320;2023-05-10T14:36:04;4.00;;;3.20;;
20038;SDS011;21737;42.868;25.320;2023-05-10T14:39:05;3.03;;;2.50;;
20038;SDS011;21737;42.868;25.320;2023-05-10T14:42:08;4.60;;;3.10;;
20038;SDS011;21737;42.868;25.320;2023-05-10T14:45:10;3.30;;;2.97;;
20038;SDS011;21737;42.868;25.320;2023-05-10T14:48:12;4.90;;;2.80;;
20038;SDS011;21737;42.868;25.320;2023-05-10T14:51:16;3.53;;;2.83;;
20038;SDS011;21737;42.868;25.320;2023-05-10T14:54:20;3.70;;;2.67;;
20038;SDS011;21737;42.868;25.320;2023-05-10T14:57:22;5.30;;;2.80;;
20038;SDS011;21737;42.868;25.320;2023-05-10T15:00:23;5.23;;;2.90;;
20038;SDS011;21737;42.868;25.320;2023-05-10T15:03:25;4.17;;;2.57;;
20038;SDS011;21737;42.868;25.320;2023-05-10T15:06:31;3.20;;;2.40;;
20038;SDS011;21737;42.868;25.320;2023-05-10T15:09:33;3.60;;;2.40;;
20038;SDS011;21737;42.868;25.320;2023-05-10T15:12:34;5.57;;;3.10;;
20038;SDS011;21737;42.868;25.320;2023-05-10T15:15:36;4.53;;;3.03;;
20038;SDS011;21737;42.868;25.320;2023-05-10T15:18:38;3.47;;;2.57;;
20038;SDS011;21737;42.868;25.320;2023-05-10T15:21:40;5.20;;;3.00;;
20038;SDS011;21737;42.868;25.320;2023-05-10T15:24:43;14.27;;;9.10;;
20038;SDS011;21737;42.868;25.320;2023-05-10T15:27:45;10.90;;;7.17;;
20038;SDS011;21737;42.868;25.320;2023-05-10T15:30:47;7.50;;;3.87;;
20038;SDS011;21737;42.868;25.320;2023-05-10T15:33:48;3.03;;;2.60;;
20038;SDS011;21737;42.868;25.320;2023-05-10T15:36:50;3.43;;;2.90;;
20038;SDS011;21737;42.868;25.320;2023-05-10T15:39:52;5.80;;;2.50;;
20038;SDS011;21737;42.868;25.320;2023-05-10T15:42:55;4.47;;;2.80;;
20038;SDS011;21737;42.868;25.320;2023-05-10T15:45:57;6.53;;;2.77;;
20038;SDS011;21737;42.868;25.320;2023-05-10T15:48:58;7.00;;;3.37;;
20038;SDS011;21737;42.868;25.320;2023-05-10T15:52:00;3.83;;;2.87;;
20038;SDS011;21737;42.868;25.320;2023-05-10T15:55:02;6.27;;;3.10;;
20038;SDS011;21737;42.868;25.320;2023-05-10T15:58:04;3.90;;;3.30;;
20038;SDS011;21737;42.868;25.320;2023-05-10T16:01:06;2.93;;;2.63;;
20038;SDS011;21737;42.868;25.320;2023-05-10T16:04:08;5.27;;;2.37;;
20038;SDS011;21737;42.868;25.320;2023-05-10T16:07:09;5.00;;;2.83;;
20038;SDS011;21737;42.868;25.320;2023-05-10T16:10:13;4.70;;;3.00;;
20038;SDS011;21737;42.868;25.320;2023-05-10T16:13:15;3.57;;;3.00;;
20038;SDS011;21737;42.868;25.320;2023-05-10T16:16:17;4.67;;;3.20;;
20038;SDS011;21737;42.868;25.320;2023-05-10T16:19:19;5.13;;;3.10;;
20038;SDS011;21737;42.868;25.320;2023-05-10T16:22:21;4.53;;;2.73;;
20038;SDS011;21737;42.868;25.320;2023-05-10T16:25:27;4.63;;;3.10;;
20038;SDS011;21737;42.868;25.320;2023-05-10T16:28:28;3.27;;;2.53;;
20038;SDS011;21737;42.868;25.320;2023-05-10T16:31:30;6.50;;;3.97;;
20038;SDS011;21737;42.868;25.320;2023-05-10T16:34:32;4.47;;;3.20;;
20038;SDS011;21737;42.868;25.320;2023-05-10T16:37:34;3.60;;;2.90;;
20038;SDS011;21737;42.868;25.320;2023-05-10T16:40:36;5.60;;;3.80;;
20038;SDS011;21737;42.868;25.320;2023-05-10T16:43:38;5.67;;;3.70;;
20038;SDS011;21737;42.868;25.320;2023-05-10T16:46:39;5.53;;;3.67;;
20038;SDS011;21737;42.868;25.320;2023-05-10T16:49:41;6.93;;;4.10;;
20038;SDS011;21737;42.868;25.320;2023-05-10T16:52:43;6.40;;;4.10;;
20038;SDS011;21737;42.868;25.320;2023-05-10T16:55:46;7.23;;;4.23;;
20038;SDS011;21737;42.868;25.320;2023-05-10T16:58:48;8.43;;;4.07;;
20038;SDS011;21737;42.868;25.320;2023-05-10T17:01:50;5.33;;;3.90;;
20038;SDS011;21737;42.868;25.320;2023-05-10T17:04:53;7.30;;;5.37;;
20038;SDS011;21737;42.868;25.320;2023-05-10T17:07:56;4.27;;;3.73;;
20038;SDS011;21737;42.868;25.320;2023-05-10T17:11:01;6.97;;;4.30;;
20038;SDS011;21737;42.868;25.320;2023-05-10T17:14:04;5.83;;;4.60;;
20038;SDS011;21737;42.868;25.320;2023-05-10T17:17:06;6.47;;;4.87;;
20038;SDS011;21737;42.868;25.320;2023-05-10T17:20:10;8.60;;;5.80;;
20038;SDS011;21737;42.868;25.320;2023-05-10T17:23:12;6.47;;;5.60;;
20038;SDS011;21737;42.868;25.320;2023-05-10T17:26:13;6.20;;;4.80;;
20038;SDS011;21737;42.868;25.320;2023-05-10T17:29:15;4.60;;;4.03;;
20038;SDS011;21737;42.868;25.320;2023-05-10T17:32:17;5.93;;;4.40;;
20038;SDS011;21737;42.868;25.320;2023-05-10T17:35:19;5.63;;;4.63;;
20038;SDS011;21737;42.868;25.320;2023-05-10T17:38:27;7.20;;;4.30;;
20038;SDS011;21737;42.868;25.320;2023-05-10T17:41:29;6.10;;;4.23;;
20038;SDS011;21737;42.868;25.320;2023-05-10T17:44:31;6.43;;;4.30;;
20038;SDS011;21737;42.868;25.320;2023-05-10T17:47:33;4.87;;;4.07;;
20038;SDS011;21737;42.868;25.320;2023-05-10T17:50:34;5.13;;;4.43;;
20038;SDS011;21737;42.868;25.320;2023-05-10T17:53:37;6.33;;;4.93;;
20038;SDS011;21737;42.868;25.320;2023-05-10T17:56:39;14.20;;;7.00;;
20038;SDS011;21737;42.868;25.320;2023-05-10T17:59:41;8.13;;;6.47;;
20038;SDS011;21737;42.868;25.320;2023-05-10T18:02:42;6.90;;;4.80;;
20038;SDS011;21737;42.868;25.320;2023-05-10T18:05:45;9.30;;;6.10;;
20038;SDS011;21737;42.868;25.320;2023-05-10T18:08:47;5.87;;;4.70;;
20038;SDS011;21737;42.868;25.320;2023-05-10T18:11:49;7.40;;;5.20;;
20038;SDS011;21737;42.868;25.320;2023-05-10T18:14:52;6.40;;;4.50;;
20038;SDS011;21737;42.868;25.320;2023-05-10T18:17:54;7.37;;;5.03;;
20038;SDS011;21737;42.868;25.320;2023-05-10T18:20:57;6.43;;;4.73;;
20038;SDS011;21737;42.868;25.320;2023-05-10T18:24:00;7.97;;;4.97;;
20038;SDS011;21737;42.868;25.320;2023-05-10T18:27:03;7.60;;;4.90;;
20038;SDS011;21737;42.868;25.320;2023-05-10T18:30:06;10.10;;;7.00;;
20038;SDS011;21737;42.868;25.320;2023-05-10T18:33:10;6.57;;;5.67;;
20038;SDS011;21737;42.868;25.320;2023-05-10T18:36:12;10.77;;;5.60;;
20038;SDS011;21737;42.868;25.320;2023-05-10T18:39:14;7.20;;;4.53;;
20038;SDS011;21737;42.868;25.320;2023-05-10T18:42:18;5.97;;;4.80;;